TRA5749 EHAM-GMMN
Flight info
| Callsign | TRA5749 |
|---|---|
| Flight time | N/A |
| Altitude | 34000 |
| Route | WOODY N872 CIV/N0453F330 DCT KOVIN DCT DUCRA DCT RESMI DCT DEKOD DCT DISAK DCT ARKIP/N0456F350 DCT ARNAV DCT LMG DCT UVELI DCT OSMOB DCT ARVID DCT PPN DCT NOLSA DCT ALEPO DCT VASUM DCT BANEV DCT BAN DCT PINAR DCT CJN L27 BLN DCT MGA DCT PIMOS DCT GALTO UB11 TUSOR |
| Aircraft | B738/M-SDE2E3FGHIRWXY/LB1 |
Departure
| Time | 2026-05-04 19:09 |
|---|---|
| Airport | Amsterdam Airport Schiphol (EHAM) |
Arrival
| Time | N/A |
|---|---|
| Airport | Mohammed V International Airport (GMMN) |
| Time | Latitude | Longitude | Altitude | Speed | Heading |
|---|---|---|---|---|---|
| 2026-05-04 18:41 | 52.30696 | 4.77087 | -3 ft | 0 kts | 4° |
| 2026-05-04 18:42 | 52.30708 | 4.77025 | -3 ft | 0 kts | 4° |
| 2026-05-04 19:01 | 52.30692 | 4.77023 | -3 ft | 4 kts | 8° |
| 2026-05-04 19:01 | 52.30667 | 4.77012 | -3 ft | 4 kts | 32° |
| 2026-05-04 19:02 | 52.30653 | 4.76986 | -4 ft | 4 kts | 95° |
| 2026-05-04 19:02 | 52.30653 | 4.76979 | -3 ft | 1 kts | 102° |
| 2026-05-04 19:04 | 52.30653 | 4.76981 | -3 ft | 1 kts | 102° |
| 2026-05-04 19:04 | 52.30636 | 4.77011 | -3 ft | 7 kts | 153° |
| 2026-05-04 19:04 | 52.30553 | 4.77080 | -4 ft | 18 kts | 161° |
| 2026-05-04 19:04 | 52.30457 | 4.76943 | -4 ft | 23 kts | 239° |
| 2026-05-04 19:05 | 52.30364 | 4.76703 | -4 ft | 27 kts | 238° |
| 2026-05-04 19:05 | 52.30263 | 4.76436 | -3 ft | 27 kts | 238° |
| 2026-05-04 19:05 | 52.30165 | 4.76181 | -3 ft | 26 kts | 238° |
| 2026-05-04 19:05 | 52.30073 | 4.75942 | -4 ft | 24 kts | 238° |
| 2026-05-04 19:06 | 52.29987 | 4.75717 | -4 ft | 24 kts | 238° |
| 2026-05-04 19:06 | 52.29892 | 4.75470 | -3 ft | 28 kts | 238° |
| 2026-05-04 19:06 | 52.29852 | 4.75176 | -3 ft | 29 kts | 306° |
| 2026-05-04 19:06 | 52.29980 | 4.74937 | -4 ft | 27 kts | 311° |
| 2026-05-04 19:07 | 52.30101 | 4.74712 | -4 ft | 26 kts | 311° |
| 2026-05-04 19:07 | 52.30215 | 4.74501 | -3 ft | 24 kts | 311° |
| 2026-05-04 19:07 | 52.30322 | 4.74303 | -3 ft | 23 kts | 312° |
| 2026-05-04 19:07 | 52.30416 | 4.74127 | -3 ft | 16 kts | 308° |
| 2026-05-04 19:08 | 52.30408 | 4.73956 | -4 ft | 16 kts | 268° |
| 2026-05-04 19:08 | 52.30418 | 4.73777 | -6 ft | 9 kts | 303° |
| 2026-05-04 19:08 | 52.30475 | 4.73759 | -5 ft | 9 kts | 4° |
| 2026-05-04 19:08 | 52.30580 | 4.73769 | -7 ft | 36 kts | 2° |
| 2026-05-04 19:09 | 52.31063 | 4.73814 | -1 ft | 102 kts | 3° |
| 2026-05-04 19:09 | 52.31966 | 4.73896 | 0 ft | 156 kts | 2° |
| 2026-05-04 19:09 | 52.33089 | 4.74003 | 548 ft | 159 kts | 6° |
| 2026-05-04 19:09 | 52.34173 | 4.74321 | 1387 ft | 158 kts | 24° |
| 2026-05-04 19:10 | 52.35210 | 4.75074 | 2018 ft | 171 kts | 23° |
| 2026-05-04 19:10 | 52.36401 | 4.75930 | 2270 ft | 200 kts | 27° |
| 2026-05-04 19:10 | 52.37414 | 4.77550 | 2601 ft | 217 kts | 66° |
| 2026-05-04 19:10 | 52.37497 | 4.80045 | 3092 ft | 228 kts | 101° |
| 2026-05-04 19:11 | 52.37039 | 4.82574 | 3643 ft | 237 kts | 117° |
| 2026-05-04 19:11 | 52.35904 | 4.84476 | 4364 ft | 240 kts | 153° |
| 2026-05-04 19:11 | 52.34220 | 4.85104 | 4692 ft | 261 kts | 181° |
| 2026-05-04 19:11 | 52.32343 | 4.85007 | 5324 ft | 271 kts | 182° |
| 2026-05-04 19:12 | 52.30454 | 4.84925 | 6150 ft | 272 kts | 182° |
| 2026-05-04 19:12 | 52.26640 | 4.84815 | 7690 ft | 277 kts | 182° |
| 2026-05-04 19:12 | 52.24703 | 4.84771 | 8453 ft | 280 kts | 182° |
| 2026-05-04 19:13 | 52.22744 | 4.84728 | 9211 ft | 283 kts | 182° |
| 2026-05-04 19:13 | 52.20762 | 4.84686 | 9971 ft | 286 kts | 182° |
| 2026-05-04 19:13 | 52.18746 | 4.84643 | 10446 ft | 299 kts | 182° |
| 2026-05-04 19:13 | 52.16576 | 4.84596 | 10600 ft | 322 kts | 181° |
| 2026-05-04 19:14 | 52.14258 | 4.84548 | 10771 ft | 344 kts | 181° |
| 2026-05-04 19:14 | 52.11795 | 4.84498 | 10944 ft | 364 kts | 181° |
| 2026-05-04 19:14 | 52.09257 | 4.84446 | 11342 ft | 374 kts | 181° |
| 2026-05-04 19:14 | 52.06638 | 4.84393 | 11939 ft | 379 kts | 181° |
| 2026-05-04 19:15 | 52.03991 | 4.84339 | 12601 ft | 382 kts | 182° |
| 2026-05-04 19:15 | 52.01354 | 4.83814 | 13180 ft | 385 kts | 199° |
| 2026-05-04 19:15 | 51.98928 | 4.81966 | 13838 ft | 386 kts | 209° |
| 2026-05-04 19:15 | 51.96521 | 4.79965 | 14409 ft | 390 kts | 207° |
| 2026-05-04 19:16 | 51.94075 | 4.78017 | 14982 ft | 394 kts | 206° |
| 2026-05-04 19:16 | 51.91591 | 4.76075 | 15473 ft | 399 kts | 206° |
| 2026-05-04 19:16 | 51.89083 | 4.74120 | 16063 ft | 401 kts | 206° |
| 2026-05-04 19:16 | 51.86566 | 4.72156 | 16654 ft | 403 kts | 206° |
| 2026-05-04 19:17 | 51.84035 | 4.70180 | 17228 ft | 405 kts | 206° |
| 2026-05-04 19:17 | 51.81485 | 4.68190 | 17786 ft | 408 kts | 206° |
| 2026-05-04 19:17 | 51.79785 | 4.66864 | 18141 ft | 410 kts | 206° |
| 2026-05-04 19:17 | 51.76334 | 4.64175 | 18809 ft | 413 kts | 206° |
| 2026-05-04 19:18 | 51.74619 | 4.62841 | 19155 ft | 414 kts | 206° |
| 2026-05-04 19:18 | 51.72019 | 4.60820 | 19655 ft | 415 kts | 206° |
| 2026-05-04 19:18 | 51.69404 | 4.58790 | 20063 ft | 420 kts | 206° |
| 2026-05-04 19:18 | 51.66762 | 4.56743 | 20530 ft | 421 kts | 206° |
| 2026-05-04 19:19 | 51.64123 | 4.54700 | 21042 ft | 422 kts | 206° |
| 2026-05-04 19:19 | 51.61467 | 4.52646 | 21506 ft | 424 kts | 206° |
| 2026-05-04 19:19 | 51.58805 | 4.50590 | 22009 ft | 425 kts | 206° |
| 2026-05-04 19:19 | 51.56130 | 4.48527 | 22348 ft | 429 kts | 205° |
| 2026-05-04 19:20 | 51.53436 | 4.46453 | 22836 ft | 429 kts | 205° |
| 2026-05-04 19:20 | 51.50737 | 4.44376 | 23322 ft | 429 kts | 205° |
| 2026-05-04 19:20 | 51.48037 | 4.42301 | 23725 ft | 431 kts | 205° |
| 2026-05-04 19:20 | 51.45312 | 4.40210 | 23937 ft | 437 kts | 205° |
| 2026-05-04 19:21 | 51.42563 | 4.38105 | 24235 ft | 439 kts | 205° |
| 2026-05-04 19:21 | 51.39802 | 4.35995 | 24575 ft | 441 kts | 205° |
| 2026-05-04 19:21 | 51.37019 | 4.33907 | 24896 ft | 442 kts | 204° |
| 2026-05-04 19:21 | 51.34228 | 4.31830 | 25308 ft | 441 kts | 204° |
| 2026-05-04 19:22 | 51.31450 | 4.29764 | 25690 ft | 442 kts | 204° |
| 2026-05-04 19:22 | 51.28655 | 4.27658 | 25888 ft | 446 kts | 205° |
| 2026-05-04 19:22 | 51.25844 | 4.25513 | 26113 ft | 450 kts | 205° |
| 2026-05-04 19:22 | 51.23017 | 4.23352 | 26420 ft | 451 kts | 205° |
| 2026-05-04 19:23 | 51.20188 | 4.21197 | 26750 ft | 451 kts | 205° |
| 2026-05-04 19:23 | 51.17347 | 4.19042 | 27044 ft | 453 kts | 205° |
| 2026-05-04 19:23 | 51.14446 | 4.17080 | 27308 ft | 454 kts | 200° |
| 2026-05-04 19:23 | 51.11454 | 4.15424 | 27601 ft | 455 kts | 198° |
| 2026-05-04 19:24 | 51.08451 | 4.13854 | 27981 ft | 454 kts | 198° |
| 2026-05-04 19:24 | 51.05457 | 4.12294 | 28422 ft | 452 kts | 198° |
| 2026-05-04 19:24 | 51.02481 | 4.10717 | 28856 ft | 450 kts | 199° |
| 2026-05-04 19:24 | 50.99523 | 4.09124 | 29245 ft | 449 kts | 199° |
| 2026-05-04 19:25 | 50.96574 | 4.07520 | 29615 ft | 448 kts | 199° |
| 2026-05-04 19:25 | 50.93634 | 4.05916 | 30009 ft | 446 kts | 199° |
| 2026-05-04 19:25 | 50.90703 | 4.04322 | 30354 ft | 444 kts | 199° |
| 2026-05-04 19:25 | 50.87826 | 4.02754 | 30747 ft | 441 kts | 200° |
| 2026-05-04 19:26 | 50.84967 | 4.01045 | 31154 ft | 438 kts | 202° |
| 2026-05-04 19:26 | 50.82118 | 3.99212 | 31539 ft | 435 kts | 202° |
| 2026-05-04 19:26 | 50.79332 | 3.97381 | 31951 ft | 431 kts | 203° |
| 2026-05-04 19:26 | 50.76588 | 3.95580 | 32493 ft | 424 kts | 202° |
| 2026-05-04 19:27 | 50.73868 | 3.93812 | 32871 ft | 422 kts | 202° |
| 2026-05-04 19:27 | 50.71153 | 3.92064 | 33130 ft | 421 kts | 202° |
| 2026-05-04 19:27 | 50.68475 | 3.90350 | 33389 ft | 421 kts | 202° |
| 2026-05-04 19:27 | 50.65730 | 3.88600 | 33698 ft | 419 kts | 202° |
| 2026-05-04 19:28 | 50.63067 | 3.86904 | 33981 ft | 418 kts | 202° |
| 2026-05-04 19:28 | 50.57643 | 3.83456 | 33953 ft | 420 kts | 202° |
| 2026-05-04 19:29 | 50.52288 | 3.79887 | 33960 ft | 416 kts | 204° |
| 2026-05-04 19:29 | 50.47003 | 3.76243 | 33963 ft | 414 kts | 204° |
| 2026-05-04 19:30 | 50.41738 | 3.72629 | 33956 ft | 412 kts | 204° |
| 2026-05-04 19:30 | 50.36476 | 3.69045 | 33986 ft | 412 kts | 204° |
| 2026-05-04 19:31 | 50.31165 | 3.65445 | 33964 ft | 420 kts | 204° |
| 2026-05-04 19:31 | 50.25760 | 3.61792 | 33958 ft | 424 kts | 204° |
| 2026-05-04 19:32 | 50.20332 | 3.58132 | 33952 ft | 425 kts | 204° |
| 2026-05-04 19:32 | 50.14915 | 3.54424 | 33953 ft | 426 kts | 205° |
| 2026-05-04 19:33 | 50.09564 | 3.50495 | 33947 ft | 424 kts | 206° |
| 2026-05-04 19:33 | 50.04244 | 3.46558 | 33941 ft | 422 kts | 206° |
| 2026-05-04 19:34 | 49.98939 | 3.42671 | 33946 ft | 420 kts | 206° |
| 2026-05-04 19:34 | 49.93651 | 3.38825 | 33943 ft | 419 kts | 206° |
| 2026-05-04 19:35 | 49.88383 | 3.35010 | 33949 ft | 417 kts | 206° |
| 2026-05-04 19:35 | 49.83133 | 3.31217 | 33940 ft | 416 kts | 206° |
| 2026-05-04 19:36 | 49.77869 | 3.27423 | 34035 ft | 420 kts | 206° |
| 2026-05-04 19:36 | 49.75219 | 3.25517 | 34225 ft | 420 kts | 206° |
| 2026-05-04 19:36 | 49.72574 | 3.23616 | 34434 ft | 419 kts | 206° |
| 2026-05-04 19:36 | 49.69928 | 3.21717 | 34580 ft | 420 kts | 206° |
| 2026-05-04 19:37 | 49.67280 | 3.19820 | 34843 ft | 418 kts | 206° |
| 2026-05-04 19:37 | 49.61988 | 3.16032 | 34939 ft | 421 kts | 206° |
| 2026-05-04 19:38 | 49.56667 | 3.12233 | 34948 ft | 422 kts | 206° |
| 2026-05-04 19:38 | 49.51333 | 3.08435 | 34951 ft | 423 kts | 206° |
| 2026-05-04 19:39 | 49.46016 | 3.04658 | 34949 ft | 423 kts | 206° |
| 2026-05-04 19:39 | 49.40629 | 3.00840 | 34945 ft | 423 kts | 206° |
| 2026-05-04 19:40 | 49.35320 | 2.97087 | 34948 ft | 423 kts | 206° |
| 2026-05-04 19:40 | 49.29982 | 2.93322 | 34938 ft | 422 kts | 206° |
| 2026-05-04 19:41 | 49.24656 | 2.89575 | 34939 ft | 420 kts | 206° |
| 2026-05-04 19:41 | 49.19356 | 2.85855 | 34939 ft | 419 kts | 206° |
| 2026-05-04 19:42 | 49.14071 | 2.82154 | 34944 ft | 417 kts | 206° |
| 2026-05-04 19:42 | 49.08903 | 2.78201 | 34941 ft | 415 kts | 209° |
| 2026-05-04 19:43 | 49.03823 | 2.74047 | 34939 ft | 413 kts | 209° |
| 2026-05-04 19:43 | 48.98759 | 2.69923 | 34937 ft | 412 kts | 208° |
| 2026-05-04 19:44 | 48.93690 | 2.65844 | 34938 ft | 412 kts | 208° |
| 2026-05-04 19:44 | 48.88592 | 2.61771 | 34955 ft | 411 kts | 208° |
| 2026-05-04 19:45 | 48.83555 | 2.57762 | 34961 ft | 411 kts | 208° |
| 2026-05-04 19:45 | 48.78447 | 2.53707 | 34942 ft | 412 kts | 208° |
| 2026-05-04 19:46 | 48.73401 | 2.49709 | 34938 ft | 412 kts | 208° |
| 2026-05-04 19:46 | 48.68312 | 2.45687 | 34942 ft | 413 kts | 208° |
| 2026-05-04 19:47 | 48.63211 | 2.41664 | 34939 ft | 414 kts | 208° |
| 2026-05-04 19:47 | 48.58106 | 2.37648 | 34941 ft | 414 kts | 208° |
| 2026-05-04 19:48 | 48.52998 | 2.33638 | 34938 ft | 414 kts | 208° |
| 2026-05-04 19:48 | 48.47890 | 2.29638 | 34943 ft | 413 kts | 208° |
| 2026-05-04 19:49 | 48.42787 | 2.25651 | 34940 ft | 413 kts | 208° |
| 2026-05-04 19:49 | 48.37697 | 2.21682 | 34940 ft | 412 kts | 207° |
| 2026-05-04 19:50 | 48.32611 | 2.17726 | 34939 ft | 411 kts | 207° |
| 2026-05-04 19:50 | 48.27536 | 2.13787 | 34951 ft | 410 kts | 207° |
| 2026-05-04 19:51 | 48.22476 | 2.09869 | 34943 ft | 409 kts | 207° |
| 2026-05-04 19:51 | 48.17427 | 2.05968 | 34939 ft | 408 kts | 207° |
| 2026-05-04 19:52 | 48.12384 | 2.02080 | 34938 ft | 407 kts | 207° |
| 2026-05-04 19:52 | 48.07356 | 1.98212 | 34938 ft | 406 kts | 207° |
| 2026-05-04 19:53 | 48.02334 | 1.94358 | 34938 ft | 405 kts | 207° |
| 2026-05-04 19:53 | 47.97320 | 1.90518 | 34941 ft | 405 kts | 207° |
| 2026-05-04 19:54 | 47.92303 | 1.86684 | 34914 ft | 405 kts | 207° |
| 2026-05-04 19:54 | 47.87286 | 1.82859 | 34917 ft | 405 kts | 207° |
| 2026-05-04 19:55 | 47.82266 | 1.79040 | 34922 ft | 405 kts | 207° |
| 2026-05-04 19:55 | 47.77247 | 1.75230 | 34926 ft | 405 kts | 207° |
| 2026-05-04 19:56 | 47.72222 | 1.71423 | 34934 ft | 405 kts | 207° |
| 2026-05-04 19:56 | 47.67191 | 1.67621 | 34950 ft | 406 kts | 206° |
| 2026-05-04 19:57 | 47.62153 | 1.63822 | 34927 ft | 407 kts | 206° |
| 2026-05-04 19:57 | 47.57102 | 1.60020 | 34925 ft | 407 kts | 206° |
| 2026-05-04 19:58 | 47.52047 | 1.56225 | 34912 ft | 408 kts | 206° |
| 2026-05-04 19:58 | 47.46988 | 1.52434 | 34918 ft | 408 kts | 206° |
| 2026-05-04 19:59 | 47.41919 | 1.48644 | 34919 ft | 408 kts | 206° |
| 2026-05-04 19:59 | 47.36882 | 1.44886 | 34912 ft | 408 kts | 206° |
| 2026-05-04 20:00 | 47.31809 | 1.41110 | 34917 ft | 408 kts | 206° |
| 2026-05-04 20:00 | 47.26733 | 1.37339 | 34924 ft | 408 kts | 206° |
| 2026-05-04 20:01 | 47.21657 | 1.33577 | 34928 ft | 408 kts | 206° |
| 2026-05-04 20:01 | 47.16584 | 1.29825 | 34930 ft | 408 kts | 206° |
| 2026-05-04 20:02 | 47.12369 | 1.26713 | 34930 ft | 408 kts | 206° |
| 2026-05-04 20:02 | 47.07297 | 1.22977 | 34948 ft | 408 kts | 205° |
| 2026-05-04 20:03 | 47.02219 | 1.19243 | 34938 ft | 408 kts | 205° |
| 2026-05-04 20:03 | 46.97134 | 1.15514 | 34927 ft | 409 kts | 205° |
| 2026-05-04 20:04 | 46.92051 | 1.11793 | 34927 ft | 409 kts | 205° |
| 2026-05-04 20:04 | 46.86964 | 1.08077 | 34931 ft | 409 kts | 205° |
| 2026-05-04 20:05 | 46.81873 | 1.04367 | 34923 ft | 409 kts | 205° |
| 2026-05-04 20:05 | 46.76783 | 1.00664 | 34924 ft | 409 kts | 205° |
| 2026-05-04 20:06 | 46.71688 | 0.96967 | 34932 ft | 409 kts | 205° |
| 2026-05-04 20:06 | 46.66595 | 0.93278 | 34941 ft | 409 kts | 205° |
| 2026-05-04 20:07 | 46.61503 | 0.89598 | 34924 ft | 409 kts | 205° |
| 2026-05-04 20:07 | 46.56407 | 0.85923 | 34935 ft | 409 kts | 205° |
| 2026-05-04 20:08 | 46.51314 | 0.82258 | 34927 ft | 408 kts | 205° |
| 2026-05-04 20:08 | 46.46234 | 0.78608 | 34945 ft | 407 kts | 204° |
| 2026-05-04 20:09 | 46.41156 | 0.74969 | 34932 ft | 407 kts | 204° |
| 2026-05-04 20:09 | 46.36082 | 0.71341 | 34922 ft | 406 kts | 204° |
| 2026-05-04 20:10 | 46.31012 | 0.67723 | 34925 ft | 406 kts | 204° |
| 2026-05-04 20:10 | 46.25947 | 0.64115 | 34932 ft | 406 kts | 204° |
| 2026-05-04 20:11 | 46.20880 | 0.60515 | 34935 ft | 406 kts | 204° |
| 2026-05-04 20:11 | 46.15808 | 0.56918 | 34928 ft | 407 kts | 204° |
| 2026-05-04 20:12 | 46.10755 | 0.53341 | 34935 ft | 408 kts | 204° |
| 2026-05-04 20:12 | 46.05654 | 0.49738 | 34937 ft | 409 kts | 204° |
| 2026-05-04 20:13 | 46.00534 | 0.46130 | 34942 ft | 410 kts | 204° |
| 2026-05-04 20:13 | 45.95398 | 0.42517 | 34949 ft | 412 kts | 204° |
| 2026-05-04 20:14 | 45.90244 | 0.38899 | 34979 ft | 413 kts | 204° |
| 2026-05-04 20:14 | 45.85068 | 0.35274 | 34970 ft | 415 kts | 204° |
| 2026-05-04 20:15 | 45.79872 | 0.31642 | 34967 ft | 416 kts | 204° |
| 2026-05-04 20:15 | 45.74663 | 0.28008 | 34964 ft | 416 kts | 204° |
| 2026-05-04 20:16 | 45.69453 | 0.24381 | 34949 ft | 417 kts | 204° |
| 2026-05-04 20:16 | 45.64230 | 0.20753 | 34941 ft | 417 kts | 204° |
| 2026-05-04 20:17 | 45.59007 | 0.17132 | 34952 ft | 417 kts | 204° |
| 2026-05-04 20:17 | 45.53791 | 0.13524 | 34950 ft | 417 kts | 205° |
| 2026-05-04 20:18 | 45.48565 | 0.09916 | 34954 ft | 417 kts | 205° |
| 2026-05-04 20:18 | 45.43348 | 0.06322 | 34960 ft | 416 kts | 205° |
| 2026-05-04 20:19 | 45.38163 | 0.02757 | 34953 ft | 417 kts | 205° |
| 2026-05-04 20:19 | 45.32940 | -0.00826 | 34978 ft | 417 kts | 205° |
| 2026-05-04 20:20 | 45.27710 | -0.04407 | 34974 ft | 418 kts | 205° |
| 2026-05-04 20:20 | 45.22462 | -0.07992 | 34967 ft | 419 kts | 205° |
| 2026-05-04 20:21 | 45.17206 | -0.11576 | 34960 ft | 420 kts | 205° |
| 2026-05-04 20:21 | 45.09295 | -0.16957 | 34970 ft | 421 kts | 205° |
| 2026-05-04 20:22 | 45.04007 | -0.20544 | 34970 ft | 422 kts | 205° |
| 2026-05-04 20:22 | 44.98712 | -0.24128 | 34966 ft | 422 kts | 205° |
| 2026-05-04 20:23 | 44.93413 | -0.27708 | 34974 ft | 422 kts | 205° |
| 2026-05-04 20:23 | 44.88110 | -0.31283 | 34976 ft | 422 kts | 205° |
| 2026-05-04 20:24 | 44.82814 | -0.34846 | 34984 ft | 422 kts | 205° |
| 2026-05-04 20:24 | 44.77521 | -0.38400 | 34984 ft | 421 kts | 205° |
| 2026-05-04 20:25 | 44.72224 | -0.41949 | 34989 ft | 421 kts | 205° |
| 2026-05-04 20:25 | 44.66938 | -0.45484 | 34987 ft | 421 kts | 205° |
| 2026-05-04 20:26 | 44.61659 | -0.49007 | 34989 ft | 420 kts | 205° |
| 2026-05-04 20:26 | 44.56382 | -0.52521 | 34986 ft | 419 kts | 205° |
| 2026-05-04 20:27 | 44.52815 | -0.54893 | 34989 ft | 419 kts | 205° |
| 2026-05-04 20:27 | 44.47545 | -0.58390 | 34986 ft | 419 kts | 205° |
| 2026-05-04 20:28 | 44.42276 | -0.61880 | 34992 ft | 419 kts | 205° |
| 2026-05-04 20:28 | 44.37010 | -0.65361 | 34992 ft | 419 kts | 205° |
| 2026-05-04 20:29 | 44.31744 | -0.68836 | 34995 ft | 418 kts | 205° |
| 2026-05-04 20:29 | 44.26476 | -0.72304 | 34998 ft | 419 kts | 205° |
| 2026-05-04 20:30 | 44.21203 | -0.75769 | 34997 ft | 419 kts | 206° |
| 2026-05-04 20:30 | 44.15935 | -0.79225 | 35012 ft | 419 kts | 205° |
| 2026-05-04 20:31 | 44.10689 | -0.82658 | 35009 ft | 419 kts | 205° |
| 2026-05-04 20:31 | 44.05402 | -0.86112 | 35012 ft | 420 kts | 205° |
| 2026-05-04 20:32 | 44.00112 | -0.89560 | 35003 ft | 420 kts | 206° |
| 2026-05-04 20:32 | 43.94824 | -0.93002 | 35013 ft | 420 kts | 206° |
| 2026-05-04 20:33 | 43.89536 | -0.96435 | 35015 ft | 420 kts | 206° |
| 2026-05-04 20:33 | 43.84243 | -0.99866 | 35019 ft | 420 kts | 206° |
| 2026-05-04 20:34 | 43.78948 | -1.03291 | 35015 ft | 420 kts | 206° |
| 2026-05-04 20:34 | 43.73657 | -1.06706 | 35021 ft | 420 kts | 206° |
| 2026-05-04 20:35 | 43.68364 | -1.10117 | 35021 ft | 420 kts | 206° |
| 2026-05-04 20:35 | 43.63068 | -1.13522 | 35018 ft | 420 kts | 206° |
| 2026-05-04 20:36 | 43.57773 | -1.16920 | 35024 ft | 420 kts | 206° |
| 2026-05-04 20:36 | 43.52469 | -1.20317 | 35031 ft | 420 kts | 206° |
| 2026-05-04 20:37 | 43.47163 | -1.23710 | 35039 ft | 420 kts | 206° |
| 2026-05-04 20:37 | 43.41856 | -1.27095 | 35022 ft | 420 kts | 206° |
| 2026-05-04 20:38 | 43.36553 | -1.30473 | 35037 ft | 420 kts | 206° |
| 2026-05-04 20:38 | 43.31251 | -1.33842 | 35042 ft | 420 kts | 206° |
| 2026-05-04 20:39 | 43.25941 | -1.37211 | 35034 ft | 420 kts | 206° |
| 2026-05-04 20:39 | 43.20635 | -1.40570 | 35023 ft | 420 kts | 206° |
| 2026-05-04 20:40 | 43.15326 | -1.43925 | 35026 ft | 420 kts | 206° |
| 2026-05-04 20:40 | 43.10010 | -1.47279 | 35030 ft | 421 kts | 206° |
| 2026-05-04 20:41 | 43.04722 | -1.50607 | 35028 ft | 421 kts | 206° |
| 2026-05-04 20:41 | 42.99402 | -1.53949 | 35031 ft | 421 kts | 207° |
| 2026-05-04 20:42 | 42.94071 | -1.57293 | 35040 ft | 421 kts | 207° |
| 2026-05-04 20:42 | 42.88740 | -1.60630 | 35024 ft | 422 kts | 207° |
| 2026-05-04 20:43 | 42.83406 | -1.63963 | 35023 ft | 421 kts | 207° |
| 2026-05-04 20:43 | 42.78247 | -1.67181 | 35026 ft | 421 kts | 207° |
| 2026-05-04 20:44 | 42.76119 | -1.68506 | 35022 ft | 421 kts | 207° |
| 2026-05-04 20:45 | 42.70815 | -1.71869 | 35027 ft | 420 kts | 208° |
| 2026-05-04 20:45 | 42.66466 | -1.74807 | 35023 ft | 420 kts | 209° |
| 2026-05-04 20:46 | 42.61244 | -1.78353 | 35027 ft | 420 kts | 208° |
| 2026-05-04 20:46 | 42.56014 | -1.81872 | 35016 ft | 419 kts | 209° |
| 2026-05-04 20:47 | 42.50784 | -1.85370 | 35029 ft | 419 kts | 209° |
| 2026-05-04 20:47 | 42.45564 | -1.88856 | 35029 ft | 418 kts | 209° |
| 2026-05-04 20:48 | 42.40345 | -1.92335 | 35033 ft | 418 kts | 209° |
| 2026-05-04 20:48 | 42.35121 | -1.95818 | 35018 ft | 418 kts | 209° |
| 2026-05-04 20:49 | 42.29899 | -1.99299 | 35033 ft | 418 kts | 209° |
| 2026-05-04 20:49 | 42.24682 | -2.02771 | 35034 ft | 418 kts | 209° |
| 2026-05-04 20:50 | 42.19458 | -2.06232 | 35023 ft | 418 kts | 209° |
| 2026-05-04 20:50 | 42.14234 | -2.09687 | 35026 ft | 418 kts | 209° |
| 2026-05-04 20:51 | 42.08998 | -2.13145 | 35020 ft | 419 kts | 209° |
| 2026-05-04 20:51 | 42.03799 | -2.16574 | 35025 ft | 419 kts | 209° |
| 2026-05-04 20:52 | 41.98561 | -2.20023 | 35032 ft | 419 kts | 209° |
| 2026-05-04 20:52 | 41.93316 | -2.23468 | 35024 ft | 419 kts | 210° |
| 2026-05-04 20:53 | 41.88331 | -2.26738 | 35029 ft | 420 kts | 210° |